createdAt,value
2023-01-11T00:00:24.744Z,0.00
2023-01-11T00:01:24.736Z,0.00
2023-01-11T00:02:24.828Z,0.00
2023-01-11T00:03:24.715Z,0.00
2023-01-11T00:04:24.850Z,0.00
2023-01-11T00:05:24.688Z,0.00
2023-01-11T00:06:24.714Z,0.00
2023-01-11T00:07:24.689Z,0.00
2023-01-11T00:08:24.652Z,0.00
2023-01-11T00:09:24.665Z,0.00
2023-01-11T00:10:24.635Z,0.00
2023-01-11T00:11:24.625Z,0.00
2023-01-11T00:12:24.762Z,0.00
2023-01-11T00:13:24.600Z,0.00
2023-01-11T00:14:24.603Z,0.00
2023-01-11T00:15:24.581Z,0.00
2023-01-11T00:16:24.626Z,0.00
2023-01-11T00:17:24.559Z,0.00
2023-01-11T00:18:24.554Z,0.00
2023-01-11T00:19:24.540Z,0.00
2023-01-11T00:20:24.570Z,0.00
2023-01-11T00:21:24.514Z,0.00
2023-01-11T00:22:24.505Z,0.00
2023-01-11T00:23:24.495Z,0.00
2023-01-11T00:24:24.502Z,0.00
2023-01-11T00:25:24.469Z,0.00
2023-01-11T00:26:24.467Z,0.00
2023-01-11T00:27:24.447Z,0.00
2023-01-11T00:28:24.435Z,0.00
2023-01-11T00:29:24.430Z,0.00
2023-01-11T00:30:24.419Z,0.00
2023-01-11T00:31:24.527Z,0.00
2023-01-11T00:32:24.395Z,0.00
2023-01-11T00:33:24.386Z,0.00
2023-01-11T00:34:24.372Z,0.00
2023-01-11T00:35:24.358Z,0.00
2023-01-11T00:36:24.379Z,0.00
2023-01-11T00:37:24.336Z,0.00
2023-01-11T00:38:24.326Z,0.00
2023-01-11T00:39:24.314Z,0.00
2023-01-11T00:40:24.349Z,0.00
2023-01-11T00:41:24.293Z,0.00
2023-01-11T00:42:24.279Z,0.00
2023-01-11T00:43:24.272Z,0.00
2023-01-11T00:44:24.267Z,0.00
2023-01-11T00:45:24.252Z,0.00
2023-01-11T00:46:24.382Z,0.00
2023-01-11T00:47:24.225Z,0.00
2023-01-11T00:48:24.227Z,0.00
2023-01-11T00:49:24.208Z,0.00
2023-01-11T00:50:24.206Z,0.00
2023-01-11T00:51:24.182Z,0.00
2023-01-11T00:52:24.197Z,0.00
2023-01-11T00:53:24.160Z,0.00
2023-01-11T00:54:24.153Z,0.00
2023-01-11T00:55:24.140Z,0.00
2023-01-11T00:56:24.131Z,0.00
2023-01-11T00:57:24.166Z,0.00
2023-01-11T00:58:24.102Z,0.00
2023-01-11T00:59:24.095Z,0.00
2023-01-11T01:00:24.085Z,0.00
2023-01-11T01:01:24.100Z,0.00
2023-01-11T01:02:24.098Z,0.00
2023-01-11T01:03:24.053Z,0.00
2023-01-11T01:04:24.043Z,0.00
2023-01-11T01:05:24.036Z,0.00
2023-01-11T01:06:24.066Z,0.00
2023-01-11T01:07:24.015Z,0.00
2023-01-11T01:08:24.179Z,0.00
2023-01-11T01:09:23.995Z,0.00
2023-01-11T01:10:23.974Z,0.00
2023-01-11T01:11:23.968Z,0.00
2023-01-11T01:12:23.958Z,0.00
2023-01-11T01:13:23.944Z,0.00
2023-01-11T01:14:23.930Z,0.00
2023-01-11T01:15:23.923Z,0.00
2023-01-11T01:16:23.911Z,0.00
2023-01-11T01:17:23.899Z,0.00
2023-01-11T01:18:23.884Z,0.00
2023-01-11T01:19:23.876Z,0.00
2023-01-11T01:20:23.884Z,0.00
2023-01-11T01:21:23.853Z,0.00
2023-01-11T01:22:23.840Z,0.00
2023-01-11T01:23:23.832Z,0.00
2023-01-11T01:24:23.847Z,0.00
2023-01-11T01:25:23.817Z,0.00
2023-01-11T01:26:23.801Z,0.00
2023-01-11T01:27:23.802Z,0.00
2023-01-11T01:28:23.780Z,0.00
2023-01-11T01:29:23.770Z,0.00
2023-01-11T01:30:23.755Z,0.00
2023-01-11T01:31:23.771Z,0.00
2023-01-11T01:32:23.732Z,0.00
2023-01-11T01:33:23.727Z,0.00
2023-01-11T01:34:23.709Z,0.00
2023-01-11T01:35:23.701Z,0.00
2023-01-11T01:36:23.690Z,0.00
2023-01-11T01:37:23.679Z,0.00
2023-01-11T01:38:23.667Z,0.00
2023-01-11T01:39:23.653Z,0.00
2023-01-11T01:40:23.677Z,0.00
2023-01-11T01:41:23.634Z,0.00
2023-01-11T01:42:23.624Z,0.00
2023-01-11T01:43:23.616Z,0.00
2023-01-11T01:44:23.614Z,0.00
2023-01-11T01:45:23.592Z,0.00
2023-01-11T01:46:23.740Z,0.00
2023-01-11T01:47:23.571Z,0.00
2023-01-11T01:48:23.562Z,0.00
2023-01-11T01:49:23.546Z,0.00
2023-01-11T01:50:23.550Z,0.00
2023-01-11T01:51:23.525Z,0.00
2023-01-11T01:52:23.514Z,0.00
2023-01-11T01:53:23.504Z,0.00
2023-01-11T01:54:23.508Z,0.00
2023-01-11T01:55:23.481Z,0.00
2023-01-11T01:56:23.494Z,0.00
2023-01-11T01:57:23.462Z,0.00
2023-01-11T01:58:23.449Z,0.00
2023-01-11T01:59:23.455Z,0.00
2023-01-11T02:00:23.427Z,0.00
2023-01-11T02:01:23.487Z,0.00
2023-01-11T02:02:23.490Z,0.00
2023-01-11T02:03:23.391Z,0.00
2023-01-11T02:04:23.381Z,0.00
2023-01-11T02:05:23.375Z,0.00
2023-01-11T02:06:23.407Z,0.00
2023-01-11T02:07:23.349Z,0.00
2023-01-11T02:08:23.338Z,0.00
2023-01-11T02:09:23.336Z,0.00
2023-01-11T02:10:23.322Z,0.00
2023-01-11T02:11:23.307Z,0.00
2023-01-11T02:12:23.335Z,0.00
2023-01-11T02:13:23.282Z,0.00
2023-01-11T02:14:23.273Z,0.00
2023-01-11T02:15:23.260Z,0.00
2023-01-11T02:16:23.301Z,0.00
2023-01-11T02:17:23.243Z,0.00
2023-01-11T02:18:23.233Z,0.00
2023-01-11T02:19:23.216Z,0.00
2023-01-11T02:20:23.212Z,0.00
2023-01-11T02:21:23.260Z,0.00
2023-01-11T02:22:23.192Z,0.00
2023-01-11T02:23:23.167Z,0.00
2023-01-11T02:24:23.162Z,0.00
2023-01-11T02:25:23.151Z,0.00
2023-01-11T02:26:23.144Z,0.00
2023-01-11T02:27:23.136Z,0.00
2023-01-11T02:28:23.140Z,0.00
2023-01-11T02:29:23.108Z,0.00
2023-01-11T02:30:23.120Z,0.00
2023-01-11T02:31:23.154Z,0.00
2023-01-11T02:32:23.079Z,0.00
2023-01-11T02:33:23.064Z,0.00
2023-01-11T02:34:23.052Z,0.00
2023-01-11T02:35:23.043Z,0.00
2023-01-11T02:36:23.032Z,0.00
2023-01-11T02:37:23.036Z,0.00
2023-01-11T02:38:23.031Z,0.00
2023-01-11T02:39:22.999Z,0.00
2023-01-11T02:40:22.997Z,0.00
2023-01-11T02:41:22.993Z,0.00
2023-01-11T02:42:22.966Z,0.00
2023-01-11T02:43:22.955Z,0.00
2023-01-11T02:44:22.968Z,0.00
2023-01-11T02:45:22.930Z,0.00
2023-01-11T02:46:23.037Z,0.00
2023-01-11T02:47:22.924Z,0.00
2023-01-11T02:48:22.903Z,0.00
2023-01-11T02:49:22.888Z,0.00
2023-01-11T02:50:22.879Z,0.00
2023-01-11T02:51:22.865Z,0.00
2023-01-11T02:52:22.858Z,0.00
2023-01-11T02:53:22.845Z,0.00
2023-01-11T02:54:22.837Z,0.00
2023-01-11T02:55:22.831Z,0.00
2023-01-11T02:56:22.813Z,0.00
2023-01-11T02:57:22.810Z,0.00
2023-01-11T02:58:22.788Z,0.00
2023-01-11T02:59:22.789Z,0.00
2023-01-11T03:00:22.790Z,0.00
2023-01-11T03:01:23.011Z,0.00
2023-01-11T03:02:22.776Z,0.00
2023-01-11T03:03:22.741Z,0.00
2023-01-11T03:04:22.719Z,0.00
2023-01-11T03:05:22.709Z,0.00
2023-01-11T03:06:22.775Z,0.00
2023-01-11T03:07:22.687Z,0.00
2023-01-11T03:08:22.681Z,0.00
2023-01-11T03:09:22.668Z,0.00
2023-01-11T03:10:22.655Z,0.00
2023-01-11T03:11:22.641Z,0.00
2023-01-11T03:12:22.639Z,0.00
2023-01-11T03:13:22.620Z,0.00
2023-01-11T03:14:22.610Z,0.00
2023-01-11T03:15:22.596Z,0.00
2023-01-11T03:16:22.639Z,0.00
2023-01-11T03:17:22.583Z,0.00
2023-01-11T03:18:22.565Z,0.00
2023-01-11T03:19:22.552Z,0.00
2023-01-11T03:20:22.541Z,0.00
2023-01-11T03:21:22.533Z,0.00
2023-01-11T03:22:22.524Z,0.00
2023-01-11T03:23:22.524Z,0.00
2023-01-11T03:24:22.499Z,0.00
2023-01-11T03:25:22.483Z,0.00
2023-01-11T03:26:22.480Z,0.00
2023-01-11T03:27:22.476Z,0.00
2023-01-11T03:28:22.463Z,0.00
2023-01-11T03:29:22.448Z,0.00
2023-01-11T03:30:22.443Z,0.00
2023-01-11T03:31:22.475Z,0.00
2023-01-11T03:32:22.435Z,0.00
2023-01-11T03:33:22.394Z,0.00
2023-01-11T03:34:22.393Z,0.00
2023-01-11T03:35:22.375Z,0.00
2023-01-11T03:36:22.365Z,0.00
2023-01-11T03:37:22.354Z,0.00
2023-01-11T03:38:22.347Z,0.00
2023-01-11T03:39:22.327Z,0.00
2023-01-11T03:40:22.324Z,0.00
2023-01-11T03:41:22.317Z,0.00
2023-01-11T03:42:22.294Z,0.00
2023-01-11T03:43:22.291Z,0.00
2023-01-11T03:44:22.281Z,0.00
2023-01-11T03:45:22.265Z,0.00
2023-01-11T03:46:22.365Z,0.00
2023-01-11T03:47:22.246Z,0.00
2023-01-11T03:48:22.262Z,0.00
2023-01-11T03:49:22.216Z,0.00
2023-01-11T03:50:22.205Z,0.00
2023-01-11T03:51:22.202Z,0.00
2023-01-11T03:52:22.187Z,0.00
2023-01-11T03:53:22.172Z,0.00
2023-01-11T03:54:22.166Z,0.00
2023-01-11T03:55:22.152Z,0.00
2023-01-11T03:56:22.147Z,0.00
2023-01-11T03:57:22.126Z,0.00
2023-01-11T03:58:22.121Z,0.00
2023-01-11T03:59:22.103Z,0.00
2023-01-11T04:00:22.097Z,0.00
2023-01-11T04:01:22.080Z,0.00
2023-01-11T04:02:22.071Z,0.00
2023-01-11T04:03:22.060Z,0.00
2023-01-11T04:04:22.125Z,0.00
2023-01-11T04:05:22.047Z,0.00
2023-01-11T04:06:22.080Z,0.00
2023-01-11T04:07:22.016Z,0.00
2023-01-11T04:08:22.004Z,0.00
2023-01-11T04:09:22.001Z,0.00
2023-01-11T04:10:21.979Z,0.00
2023-01-11T04:11:21.980Z,0.00
2023-01-11T04:12:21.961Z,0.00
2023-01-11T04:13:21.945Z,0.00
2023-01-11T04:14:21.947Z,0.00
2023-01-11T04:15:21.930Z,0.00
2023-01-11T04:16:22.006Z,0.00
2023-01-11T04:17:21.904Z,0.00
2023-01-11T04:18:21.894Z,0.00
2023-01-11T04:19:21.881Z,0.00
2023-01-11T04:20:21.893Z,0.00
2023-01-11T04:21:21.866Z,0.00
2023-01-11T04:22:21.854Z,0.00
2023-01-11T04:23:21.867Z,0.00
2023-01-11T04:24:21.851Z,0.00
2023-01-11T04:25:21.812Z,0.00
2023-01-11T04:26:21.805Z,0.00
2023-01-11T04:27:21.796Z,0.00
2023-01-11T04:28:21.785Z,0.00
2023-01-11T04:29:21.770Z,0.00
2023-01-11T04:30:21.798Z,0.00
2023-01-11T04:31:21.897Z,0.00
2023-01-11T04:32:21.741Z,0.00
2023-01-11T04:33:21.725Z,0.00
2023-01-11T04:34:21.715Z,0.00
2023-01-11T04:35:21.707Z,0.00
2023-01-11T04:36:21.721Z,0.00
2023-01-11T04:37:21.679Z,0.00
2023-01-11T04:38:21.675Z,0.00
2023-01-11T04:39:21.663Z,0.00
2023-01-11T04:40:21.655Z,0.00
2023-01-11T04:41:23.521Z,0.00
2023-01-11T04:42:21.628Z,0.00
2023-01-11T04:43:21.612Z,0.00
2023-01-11T04:44:21.603Z,0.00
2023-01-11T04:45:21.617Z,0.00
2023-01-11T04:46:21.636Z,0.00
2023-01-11T04:47:21.580Z,0.00
2023-01-11T04:48:21.565Z,0.00
2023-01-11T04:49:21.545Z,0.00
2023-01-11T04:50:21.561Z,0.00
2023-01-11T04:51:21.534Z,0.00
2023-01-11T04:52:21.535Z,0.00
2023-01-11T04:53:21.497Z,0.00
2023-01-11T04:54:21.546Z,0.00
2023-01-11T04:55:21.475Z,0.00
2023-01-11T04:56:21.510Z,0.00
2023-01-11T04:57:21.458Z,0.00
2023-01-11T04:58:21.447Z,0.00
2023-01-11T04:59:21.440Z,0.00
2023-01-11T05:00:21.433Z,0.00
2023-01-11T05:01:21.466Z,0.00
2023-01-11T05:02:21.416Z,0.00
2023-01-11T05:03:21.391Z,0.00
2023-01-11T05:04:21.423Z,0.00
2023-01-11T05:05:21.367Z,0.00
2023-01-11T05:06:21.390Z,0.00
2023-01-11T05:07:21.350Z,0.00
2023-01-11T05:08:21.376Z,0.00
2023-01-11T05:09:21.381Z,0.00
2023-01-11T05:10:21.330Z,0.00
2023-01-11T05:11:21.349Z,0.00
2023-01-11T05:12:21.334Z,0.00
2023-01-11T05:13:21.304Z,0.00
2023-01-11T05:14:21.281Z,0.00
2023-01-11T05:15:21.254Z,0.00
2023-01-11T05:16:21.284Z,0.00
2023-01-11T05:17:21.233Z,0.00
2023-01-11T05:18:21.227Z,0.00
2023-01-11T05:19:21.214Z,0.00
2023-01-11T05:20:21.202Z,0.00
2023-01-11T05:21:21.196Z,0.00
2023-01-11T05:22:21.189Z,0.00
2023-01-11T05:23:21.166Z,0.00
2023-01-11T05:24:21.177Z,0.00
2023-01-11T05:25:21.177Z,0.00
2023-01-11T05:26:21.154Z,0.00
2023-01-11T05:27:21.185Z,0.00
2023-01-11T05:28:21.143Z,0.00
2023-01-11T05:29:21.118Z,0.00
2023-01-11T05:30:21.121Z,0.00
2023-01-11T05:31:21.158Z,0.00
2023-01-11T05:32:21.082Z,0.00
2023-01-11T05:33:21.056Z,0.00
2023-01-11T05:34:21.055Z,0.00
2023-01-11T05:35:21.036Z,0.00
2023-01-11T05:36:21.024Z,0.00
2023-01-11T05:37:21.030Z,0.00
2023-01-11T05:38:21.179Z,0.00
2023-01-11T05:39:20.991Z,0.00
2023-01-11T05:40:21.005Z,0.00
2023-01-11T05:41:20.969Z,0.00
2023-01-11T05:42:22.225Z,0.00
2023-01-11T05:43:20.995Z,0.00
2023-01-11T05:44:20.939Z,0.00
2023-01-11T05:45:20.925Z,0.00
2023-01-11T05:46:20.912Z,0.00
2023-01-11T05:47:20.896Z,0.00
2023-01-11T05:48:20.900Z,0.00
2023-01-11T05:49:20.881Z,0.00
2023-01-11T05:50:20.877Z,0.00
2023-01-11T05:51:20.858Z,0.00
2023-01-11T05:52:20.944Z,0.00
2023-01-11T05:53:20.865Z,0.00
2023-01-11T05:54:20.830Z,0.00
2023-01-11T05:55:20.841Z,0.00
2023-01-11T05:56:20.850Z,0.00
2023-01-11T05:57:20.803Z,0.00
2023-01-11T05:58:20.777Z,0.00
2023-01-11T05:59:21.029Z,0.00
2023-01-11T06:00:21.333Z,0.00
2023-01-11T06:01:21.030Z,0.00
2023-01-11T06:02:21.263Z,0.00
2023-01-11T06:03:20.759Z,0.00
2023-01-11T06:04:20.730Z,0.00
2023-01-11T06:05:20.736Z,0.00
2023-01-11T06:06:20.695Z,0.00
2023-01-11T06:07:20.683Z,0.00
2023-01-11T06:08:20.666Z,0.00
2023-01-11T06:09:20.663Z,0.00
2023-01-11T06:10:20.644Z,0.00
2023-01-11T06:11:20.636Z,0.00
2023-01-11T06:12:20.661Z,0.00
2023-01-11T06:13:20.613Z,0.00
2023-01-11T06:14:20.634Z,0.00
2023-01-11T06:15:20.605Z,0.00
2023-01-11T06:16:20.643Z,0.00
2023-01-11T06:17:20.575Z,0.00
2023-01-11T06:18:20.554Z,0.00
2023-01-11T06:19:20.552Z,0.00
2023-01-11T06:20:20.554Z,0.00
2023-01-11T06:21:20.538Z,0.00
2023-01-11T06:22:20.508Z,0.00
2023-01-11T06:23:20.523Z,0.00
2023-01-11T06:24:20.492Z,0.00
2023-01-11T06:25:20.480Z,0.00
2023-01-11T06:26:20.668Z,0.00
2023-01-11T06:27:20.458Z,0.00
2023-01-11T06:28:20.467Z,0.00
2023-01-11T06:29:20.442Z,0.00
2023-01-11T06:30:20.423Z,0.00
2023-01-11T06:31:20.600Z,0.00
2023-01-11T06:32:20.401Z,0.00
2023-01-11T06:33:20.408Z,0.00
2023-01-11T06:34:20.381Z,0.00
2023-01-11T06:35:20.373Z,0.00
2023-01-11T06:36:20.365Z,0.00
2023-01-11T06:37:20.350Z,0.00
2023-01-11T06:38:20.332Z,0.00
2023-01-11T06:39:20.337Z,0.00
2023-01-11T06:40:20.313Z,0.00
2023-01-11T06:41:20.309Z,0.00
2023-01-11T06:42:20.297Z,0.00
2023-01-11T06:43:20.287Z,0.00
2023-01-11T06:44:20.306Z,0.00
2023-01-11T06:45:20.280Z,0.00
2023-01-11T06:46:20.348Z,0.00
2023-01-11T06:47:20.234Z,0.00
2023-01-11T06:48:20.223Z,0.00
2023-01-11T06:49:20.217Z,0.00
2023-01-11T06:50:20.201Z,0.00
2023-01-11T06:51:20.198Z,0.00
2023-01-11T06:52:20.183Z,0.00
2023-01-11T06:53:20.172Z,0.00
2023-01-11T06:54:20.159Z,0.00
2023-01-11T06:55:20.152Z,0.00
2023-01-11T06:56:20.137Z,0.00
2023-01-11T06:57:20.124Z,0.00
2023-01-11T06:58:20.116Z,0.00
2023-01-11T06:59:20.108Z,0.00
2023-01-11T07:00:20.135Z,0.00
2023-01-11T07:01:20.244Z,0.00
2023-01-11T07:02:20.067Z,0.00
2023-01-11T07:03:20.059Z,0.00
2023-01-11T07:04:20.046Z,0.00
2023-01-11T07:05:20.203Z,0.00
2023-01-11T07:06:20.025Z,4.00
2023-01-11T07:07:20.025Z,4.00
2023-01-11T07:08:20.006Z,4.00
2023-01-11T07:09:19.992Z,4.00
2023-01-11T07:10:19.981Z,0.00
2023-01-11T07:11:20.050Z,4.00
2023-01-11T07:12:19.960Z,4.00
2023-01-11T07:13:19.946Z,8.00
2023-01-11T07:14:19.944Z,12.00
2023-01-11T07:15:19.928Z,8.00
2023-01-11T07:16:19.965Z,8.00
2023-01-11T07:17:19.903Z,8.00
2023-01-11T07:18:19.896Z,12.00
2023-01-11T07:19:19.886Z,12.00
2023-01-11T07:20:19.872Z,12.00
2023-01-11T07:21:19.859Z,12.00
2023-01-11T07:22:19.847Z,16.00
2023-01-11T07:23:19.837Z,20.00
2023-01-11T07:24:19.835Z,16.00
2023-01-11T07:25:19.819Z,16.00
2023-01-11T07:26:19.850Z,24.00
2023-01-11T07:27:19.793Z,24.00
2023-01-11T07:28:19.784Z,16.00
2023-01-11T07:29:19.771Z,12.00
2023-01-11T07:30:19.760Z,8.00
2023-01-11T07:31:19.899Z,12.00
2023-01-11T07:32:19.772Z,12.00
2023-01-11T07:33:19.729Z,52.00
2023-01-11T07:34:19.716Z,80.00
2023-01-11T07:35:19.705Z,88.00
2023-01-11T07:36:19.692Z,80.00
2023-01-11T07:37:28.631Z,88.00
2023-01-11T07:38:20.716Z,108.00
2023-01-11T07:39:19.682Z,112.00
2023-01-11T07:40:19.658Z,116.00
2023-01-11T07:41:19.664Z,116.00
2023-01-11T07:42:19.625Z,116.00
2023-01-11T07:43:19.617Z,108.00
2023-01-11T07:44:19.611Z,104.00
2023-01-11T07:45:19.678Z,116.00
2023-01-11T07:46:19.721Z,120.00
2023-01-11T07:47:19.573Z,136.00
2023-01-11T07:48:19.594Z,144.00
2023-01-11T07:49:19.553Z,156.00
2023-01-11T07:50:19.540Z,184.00
2023-01-11T07:51:19.529Z,212.00
2023-01-11T07:52:19.515Z,232.00
2023-01-11T07:53:19.510Z,256.00
2023-01-11T07:54:19.497Z,292.00
2023-01-11T07:55:19.484Z,328.00
2023-01-11T07:56:19.478Z,384.00
2023-01-11T07:57:19.460Z,396.00
2023-01-11T07:58:19.449Z,408.00
2023-01-11T07:59:19.437Z,388.00
2023-01-11T08:00:19.433Z,424.00
2023-01-11T08:01:19.416Z,476.00
2023-01-11T08:02:19.454Z,500.00
2023-01-11T08:03:19.592Z,564.00
2023-01-11T08:04:19.413Z,612.00
2023-01-11T08:05:19.385Z,692.00
2023-01-11T08:06:19.363Z,804.00
2023-01-11T08:07:19.352Z,912.00
2023-01-11T08:08:19.382Z,904.00
2023-01-11T08:09:19.331Z,924.00
2023-01-11T08:10:19.320Z,1032.00
2023-01-11T08:11:19.306Z,1140.00
2023-01-11T08:12:19.298Z,1228.00
2023-01-11T08:13:19.284Z,1128.00
2023-01-11T08:14:19.273Z,936.00
2023-01-11T08:15:19.264Z,992.00
2023-01-11T08:16:19.298Z,1156.00
2023-01-11T08:17:19.248Z,1160.00
2023-01-11T08:18:19.229Z,1004.00
2023-01-11T08:19:19.231Z,804.00
2023-01-11T08:20:19.229Z,696.00
2023-01-11T08:21:19.196Z,744.00
2023-01-11T08:22:19.185Z,780.00
2023-01-11T08:23:19.174Z,780.00
2023-01-11T08:24:19.164Z,804.00
2023-01-11T08:25:19.150Z,844.00
2023-01-11T08:26:19.149Z,952.00
2023-01-11T08:27:19.140Z,1236.00
2023-01-11T08:28:19.120Z,1540.00
2023-01-11T08:29:19.114Z,1784.00
2023-01-11T08:30:19.105Z,1952.00
2023-01-11T08:31:19.161Z,2100.00
2023-01-11T08:32:19.075Z,2232.00
2023-01-11T08:33:19.440Z,2280.00
2023-01-11T08:34:19.054Z,2264.00
2023-01-11T08:35:19.039Z,2248.00
2023-01-11T08:36:19.222Z,2244.00
2023-01-11T08:37:19.020Z,2268.00
2023-01-11T08:38:19.005Z,2328.00
2023-01-11T08:39:19.004Z,2392.00
2023-01-11T08:40:18.982Z,2444.00
2023-01-11T08:41:18.977Z,2500.00
2023-01-11T08:42:18.977Z,2548.00
2023-01-11T08:43:18.964Z,2564.00
2023-01-11T08:44:29.094Z,2560.00
2023-01-11T08:45:18.934Z,2572.00
2023-01-11T08:46:18.983Z,2608.00
2023-01-11T08:47:18.916Z,2632.00
2023-01-11T08:48:18.899Z,2628.00
2023-01-11T08:49:18.884Z,2616.00
2023-01-11T08:50:18.882Z,2604.00
2023-01-11T08:51:18.865Z,2520.00
2023-01-11T08:52:18.876Z,2416.00
2023-01-11T08:53:18.842Z,2500.00
2023-01-11T08:54:18.829Z,2772.00
2023-01-11T08:55:18.852Z,3140.00
2023-01-11T08:56:18.807Z,3504.00
2023-01-11T08:57:18.801Z,3768.00
2023-01-11T08:58:20.626Z,3908.00
2023-01-11T08:59:19.127Z,3980.00
2023-01-11T09:00:18.768Z,4028.00
2023-01-11T09:01:19.508Z,4064.00
2023-01-11T09:02:18.742Z,4080.00
2023-01-11T09:03:18.733Z,4060.00
2023-01-11T09:04:25.076Z,3972.00
2023-01-11T09:05:19.737Z,3788.00
2023-01-11T09:06:18.698Z,3556.00
2023-01-11T09:07:18.692Z,3328.00
2023-01-11T09:08:18.697Z,3140.00
2023-01-11T09:09:18.665Z,3264.00
2023-01-11T09:10:18.649Z,3492.00
2023-01-11T09:11:18.643Z,3440.00
2023-01-11T09:12:18.632Z,3372.00
2023-01-11T09:13:18.625Z,3556.00
2023-01-11T09:14:18.619Z,3720.00
2023-01-11T09:15:18.599Z,3564.00
2023-01-11T09:16:18.649Z,3328.00
2023-01-11T09:17:18.583Z,3312.00
2023-01-11T09:18:18.564Z,3240.00
2023-01-11T09:19:18.555Z,3076.00
2023-01-11T09:20:18.542Z,2836.00
2023-01-11T09:21:18.541Z,2724.00
2023-01-11T09:22:18.560Z,2768.00
2023-01-11T09:23:18.530Z,2672.00
2023-01-11T09:24:18.568Z,2552.00
2023-01-11T09:25:18.490Z,2492.00
2023-01-11T09:26:18.478Z,2400.00
2023-01-11T09:27:18.538Z,2200.00
2023-01-11T09:28:18.474Z,1880.00
2023-01-11T09:29:18.474Z,1552.00
2023-01-11T09:30:18.432Z,1364.00
2023-01-11T09:31:18.456Z,1248.00
2023-01-11T09:32:18.415Z,1132.00
2023-01-11T09:33:18.401Z,1104.00
2023-01-11T09:34:18.388Z,1016.00
2023-01-11T09:35:18.377Z,964.00
2023-01-11T09:36:18.363Z,872.00
2023-01-11T09:37:18.355Z,776.00
2023-01-11T09:38:18.345Z,1180.00
2023-01-11T09:39:18.337Z,1952.00
2023-01-11T09:40:18.425Z,2208.00
2023-01-11T09:41:18.311Z,2772.00
2023-01-11T09:42:18.309Z,3956.00
2023-01-11T09:43:18.287Z,4060.00
2023-01-11T09:44:18.279Z,3936.00
2023-01-11T09:45:18.276Z,3620.00
2023-01-11T09:46:18.270Z,3580.00
2023-01-11T09:47:18.245Z,3692.00
2023-01-11T09:48:18.233Z,4344.00
2023-01-11T09:49:18.222Z,4768.00
2023-01-11T09:50:18.215Z,4696.00
2023-01-11T09:51:18.202Z,4720.00
2023-01-11T09:52:18.195Z,5252.00
2023-01-11T09:53:18.180Z,5628.00
2023-01-11T09:54:18.170Z,5788.00
2023-01-11T09:55:18.159Z,5652.00
2023-01-11T09:56:18.491Z,5272.00
2023-01-11T09:57:18.154Z,5068.00
2023-01-11T09:58:18.138Z,5352.00
2023-01-11T09:59:18.125Z,4968.00
2023-01-11T10:00:18.099Z,4748.00
2023-01-11T10:01:18.187Z,5464.00
2023-01-11T10:02:18.080Z,5708.00
2023-01-11T10:03:18.069Z,5872.00
2023-01-11T10:04:18.162Z,5672.00
2023-01-11T10:05:18.105Z,5468.00
2023-01-11T10:06:18.034Z,5268.00
2023-01-11T10:07:18.021Z,5024.00
2023-01-11T10:18:31.574Z,3900.00
2023-01-11T10:18:31.913Z,4700.00
2023-01-11T10:18:32.763Z,3944.00
2023-01-11T10:18:38.764Z,4052.00
2023-01-11T10:18:41.726Z,5868.00
2023-01-11T10:19:34.979Z,6572.00
2023-01-11T10:20:19.005Z,6840.00
2023-01-11T10:21:17.870Z,7120.00
2023-01-11T10:22:17.862Z,7352.00
2023-01-11T10:23:17.847Z,7192.00
2023-01-11T10:24:17.837Z,6368.00
2023-01-11T10:25:17.826Z,5340.00
2023-01-11T10:26:17.810Z,4976.00
2023-01-11T10:27:17.886Z,5244.00
2023-01-11T10:28:17.818Z,5340.00
2023-01-11T10:29:17.802Z,5148.00
2023-01-11T10:30:17.767Z,5392.00
2023-01-11T10:31:17.809Z,4784.00
2023-01-11T10:32:17.749Z,3676.00
2023-01-11T10:33:17.752Z,3312.00
2023-01-11T10:34:17.752Z,3356.00
2023-01-11T10:35:17.724Z,3028.00
2023-01-11T10:36:17.705Z,2556.00
2023-01-11T10:37:17.693Z,2180.00
2023-01-11T10:38:17.694Z,2176.00
2023-01-11T10:39:17.672Z,2876.00
2023-01-11T10:40:17.659Z,3448.00
2023-01-11T10:41:17.647Z,3276.00
2023-01-11T10:42:17.641Z,2808.00
2023-01-11T10:43:17.624Z,2760.00
2023-01-11T10:44:17.819Z,2804.00
2023-01-11T10:45:17.604Z,3352.00
2023-01-11T10:46:17.597Z,4268.00
2023-01-11T10:47:17.577Z,4608.00
2023-01-11T10:48:17.576Z,4368.00
2023-01-11T10:49:17.557Z,4012.00
2023-01-11T10:50:17.570Z,3444.00
2023-01-11T10:51:17.545Z,3888.00
2023-01-11T10:52:17.555Z,5740.00
2023-01-11T10:53:17.531Z,7060.00
2023-01-11T10:54:17.755Z,7320.00
2023-01-11T10:55:17.499Z,6676.00
2023-01-11T10:56:17.482Z,5732.00
2023-01-11T10:57:17.469Z,4860.00
2023-01-11T10:58:17.458Z,4156.00
2023-01-11T10:59:17.450Z,3748.00
2023-01-11T11:00:17.475Z,3820.00
2023-01-11T11:01:17.532Z,4156.00
2023-01-11T11:02:17.489Z,5488.00
2023-01-11T11:03:17.472Z,5764.00
2023-01-11T11:04:17.403Z,5056.00
2023-01-11T11:05:17.376Z,4140.00
2023-01-11T11:06:17.369Z,3868.00
2023-01-11T11:07:17.357Z,4084.00
2023-01-11T11:08:17.388Z,3884.00
2023-01-11T11:09:17.335Z,3436.00
2023-01-11T11:10:17.326Z,3668.00
2023-01-11T11:11:17.313Z,4400.00
2023-01-11T11:12:17.304Z,4476.00
2023-01-11T11:13:17.299Z,4580.00
2023-01-11T11:14:17.281Z,5324.00
2023-01-11T11:15:17.268Z,6152.00
2023-01-11T11:16:17.319Z,6704.00
2023-01-11T11:17:17.254Z,7024.00
2023-01-11T11:18:17.240Z,7156.00
2023-01-11T11:19:17.227Z,7188.00
2023-01-11T11:20:17.268Z,7180.00
2023-01-11T11:21:17.219Z,6980.00
2023-01-11T11:22:17.194Z,6536.00
2023-01-11T11:23:17.194Z,6220.00
2023-01-11T11:24:17.176Z,5840.00
2023-01-11T11:25:17.160Z,5580.00
2023-01-11T11:26:17.161Z,5876.00
2023-01-11T11:27:17.194Z,6148.00
2023-01-11T11:28:17.124Z,6232.00
2023-01-11T11:29:17.113Z,6416.00
2023-01-11T11:30:17.122Z,6536.00
2023-01-11T11:31:17.111Z,6512.00
2023-01-11T11:32:17.108Z,6440.00
2023-01-11T11:33:17.077Z,6356.00
2023-01-11T11:34:17.058Z,6384.00
2023-01-11T11:35:17.053Z,6380.00
2023-01-11T11:36:17.035Z,6256.00
2023-01-11T11:37:17.024Z,6220.00
2023-01-11T11:38:17.011Z,6276.00
2023-01-11T11:39:17.001Z,6344.00
2023-01-11T11:40:16.990Z,6412.00
2023-01-11T11:41:17.001Z,6456.00
2023-01-11T11:42:16.993Z,6552.00
2023-01-11T11:43:16.957Z,6644.00
2023-01-11T11:44:16.950Z,6672.00
2023-01-11T11:45:16.941Z,6624.00
2023-01-11T11:46:20.478Z,6556.00
2023-01-11T11:47:16.968Z,6492.00
2023-01-11T11:48:16.930Z,6436.00
2023-01-11T11:49:16.921Z,6460.00
2023-01-11T11:50:20.708Z,6636.00
2023-01-11T11:51:17.914Z,6900.00
2023-01-11T11:52:16.904Z,7164.00
2023-01-11T11:53:16.849Z,7360.00
2023-01-11T11:54:16.833Z,7412.00
2023-01-11T11:55:16.826Z,7324.00
2023-01-11T11:56:16.815Z,7204.00
2023-01-11T11:57:16.808Z,7128.00
2023-01-11T11:58:16.808Z,7152.00
2023-01-11T11:59:16.781Z,7132.00
2023-01-11T12:00:16.842Z,7312.00
2023-01-11T12:01:16.756Z,7452.00
2023-01-11T12:02:16.865Z,7552.00
2023-01-11T12:03:16.739Z,7656.00
2023-01-11T12:04:16.759Z,7780.00
2023-01-11T12:05:16.754Z,7888.00
2023-01-11T12:06:16.712Z,8064.00
2023-01-11T12:07:16.719Z,8472.00
2023-01-11T12:08:16.679Z,9168.00
2023-01-11T12:09:16.668Z,9816.00
2023-01-11T12:10:16.781Z,10056.00
2023-01-11T12:11:16.652Z,9860.00
2023-01-11T12:12:16.645Z,9516.00
2023-01-11T12:13:16.625Z,9320.00
2023-01-11T12:14:16.650Z,9332.00
2023-01-11T12:15:16.609Z,9488.00
2023-01-11T12:16:16.624Z,9720.00
2023-01-11T12:17:16.578Z,9772.00
2023-01-11T12:18:16.570Z,9704.00
2023-01-11T12:19:16.575Z,9620.00
2023-01-11T12:20:16.575Z,9728.00
2023-01-11T12:21:16.544Z,9820.00
2023-01-11T12:22:16.524Z,9864.00
2023-01-11T12:23:16.511Z,9840.00
2023-01-11T12:24:16.508Z,9900.00
2023-01-11T12:25:16.492Z,10104.00
2023-01-11T12:26:16.482Z,10208.00
2023-01-11T12:27:16.612Z,9992.00
2023-01-11T12:28:16.460Z,9968.00
2023-01-11T12:29:16.445Z,10344.00
2023-01-11T12:30:19.129Z,10388.00
2023-01-11T12:31:16.524Z,10572.00
2023-01-11T12:32:16.427Z,10772.00
2023-01-11T12:33:16.405Z,11464.00
2023-01-11T12:34:16.394Z,11780.00
2023-01-11T12:35:16.384Z,9788.00
2023-01-11T12:36:16.395Z,8780.00
2023-01-11T12:37:16.366Z,8208.00
2023-01-11T12:38:16.560Z,7588.00
2023-01-11T12:39:16.337Z,7132.00
2023-01-11T12:40:16.350Z,6644.00
2023-01-11T12:41:16.316Z,6164.00
2023-01-11T12:42:16.315Z,5740.00
2023-01-11T12:43:16.296Z,5396.00
2023-01-11T12:44:16.288Z,5100.00
2023-01-11T12:45:16.273Z,4880.00
2023-01-11T12:46:16.436Z,4736.00
2023-01-11T12:47:17.965Z,4648.00
2023-01-11T12:48:16.242Z,4592.00
2023-01-11T12:49:16.227Z,4516.00
2023-01-11T12:50:16.222Z,4496.00
2023-01-11T12:51:16.209Z,4804.00
2023-01-11T12:52:16.219Z,5280.00
2023-01-11T12:53:16.181Z,6888.00